Time;durP1;ratioP1;P1;durP2;ratioP2;P2;SDS_P1;SDS_P2;PMS_P1;PMS_P2;Temp;Humidity;BMP_temperature;BMP_pressure;BME280_temperature;BME280_humidity;BME280_pressure;Samples;Min_cycle;Max_cycle;Signal;HPM_P1;HPM_P2
2021/10/26 00:00:15;;;;;;;12.80;8.07;;;;;;;5.21;62.64;96063.72;4888290;29;20047;-80
2021/10/26 00:02:40;;;;;;;13.85;9.02;;;;;;;5.22;62.41;96060.97;4902929;29;20028;-80
2021/10/26 00:05:06;;;;;;;10.02;7.78;;;;;;;5.25;62.04;96052.91;4902465;29;20437;-80
2021/10/26 00:07:32;;;;;;;14.88;7.72;;;;;;;5.28;62.36;96050.00;4970991;23;21316;-79
2021/10/26 00:09:57;;;;;;;11.90;8.18;;;;;;;5.32;63.06;96051.25;4912933;29;20064;-80
2021/10/26 00:12:23;;;;;;;15.27;8.05;;;;;;;5.30;63.06;96048.03;4910782;29;20036;-81
2021/10/26 00:14:48;;;;;;;16.77;8.60;;;;;;;5.30;62.71;96042.88;4892977;29;20036;-80
2021/10/26 00:17:14;;;;;;;14.60;8.35;;;;;;;5.25;63.64;96046.94;4922651;29;20041;-80
2021/10/26 00:19:40;;;;;;;11.75;8.52;;;;;;;5.15;63.98;96039.41;4909795;29;20516;-81
2021/10/26 00:22:06;;;;;;;22.17;8.30;;;;;;;5.10;64.32;96041.69;4893330;29;20338;-82
2021/10/26 00:24:31;;;;;;;12.38;8.18;;;;;;;5.05;64.15;96034.47;4909573;29;20028;-83
2021/10/26 00:29:31;;;;;;;10.85;8.50;;;;;;;4.98;64.40;96045.59;4917450;23;20056;-82
2021/10/26 00:31:57;;;;;;;15.93;8.43;;;;;;;5.04;64.01;96043.16;4900783;29;20033;-80
2021/10/26 00:34:22;;;;;;;13.25;7.80;;;;;;;5.05;64.49;96042.19;4883567;29;20098;-80
2021/10/26 00:36:48;;;;;;;20.10;9.05;;;;;;;5.07;63.92;96036.88;4868253;29;20044;-80
2021/10/26 00:39:13;;;;;;;13.45;8.20;;;;;;;5.09;64.43;96040.09;4900382;29;20069;-81
2021/10/26 00:41:39;;;;;;;14.30;8.48;;;;;;;5.13;63.83;96029.25;4868190;29;20040;-80
2021/10/26 00:44:04;;;;;;;14.05;8.77;;;;;;;5.15;63.52;96034.25;4868155;29;20033;-80
2021/10/26 00:46:35;;;;;;;12.23;7.78;;;;;;;5.13;63.83;96025.88;4899838;29;20044;-80
2021/10/26 00:49:01;;;;;;;11.65;8.60;;;;;;;5.10;64.18;96031.38;4882212;29;20032;-81
2021/10/26 00:51:28;;;;;;;15.35;8.95;;;;;;;4.94;64.35;96027.09;4898910;29;20124;-80
2021/10/26 00:53:54;;;;;;;14.23;8.80;;;;;;;5.02;64.31;96018.50;4900162;29;20035;-80
2021/10/26 00:56:20;;;;;;;14.68;8.98;;;;;;;4.96;64.73;96025.16;4883344;29;20036;-80
2021/10/26 00:58:46;;;;;;;12.38;9.00;;;;;;;4.93;64.92;96024.69;4874822;29;20040;-80
2021/10/26 01:01:11;;;;;;;16.17;8.93;;;;;;;4.90;64.49;96014.72;4883135;29;20039;-78
2021/10/26 01:03:36;;;;;;;17.13;9.15;;;;;;;4.97;65.02;96011.28;4899828;29;20059;-80
2021/10/26 01:06:03;;;;;;;15.05;9.45;;;;;;;4.92;65.01;96011.00;4882936;29;20081;-81
2021/10/26 01:08:55;;;;;;;25.70;9.75;;;;;;;4.91;65.43;96021.47;4882108;29;20092;-81
2021/10/26 01:11:21;;;;;;;17.17;10.05;;;;;;;4.88;66.04;96014.88;4880957;29;20870;-81
2021/10/26 01:13:47;;;;;;;18.13;10.18;;;;;;;4.88;65.82;96012.31;4883271;29;20036;-81
2021/10/26 01:16:12;;;;;;;16.13;8.82;;;;;;;4.90;65.45;96001.81;4867553;29;20075;-81
2021/10/26 01:18:38;;;;;;;12.70;9.10;;;;;;;4.83;66.29;95999.91;4898891;29;20032;-82
2021/10/26 01:21:03;;;;;;;15.35;9.70;;;;;;;4.81;65.48;96007.00;4867425;29;20029;-81
2021/10/26 01:23:29;;;;;;;19.05;9.82;;;;;;;4.83;65.77;95999.09;4882028;29;20051;-82
2021/10/26 01:25:55;;;;;;;18.60;9.85;;;;;;;4.86;65.84;96003.09;4867600;29;20570;-81
2021/10/26 01:28:20;;;;;;;22.75;10.60;;;;;;;4.88;65.67;96009.72;4867586;29;20507;-82
2021/10/26 01:30:46;;;;;;;15.90;10.38;;;;;;;4.95;65.83;95986.66;4888278;29;20050;-81
2021/10/26 01:33:11;;;;;;;20.35;9.95;;;;;;;4.95;65.31;95992.59;4869181;29;20114;-81
2021/10/26 01:35:37;;;;;;;18.95;10.18;;;;;;;4.81;65.69;95996.69;4883603;29;20060;-81
2021/10/26 01:38:03;;;;;;;15.18;10.18;;;;;;;4.83;66.38;96004.25;4900141;29;20501;-81
2021/10/26 01:40:29;;;;;;;24.17;10.13;;;;;;;4.81;65.82;95996.69;4882262;29;20465;-81
2021/10/26 01:42:54;;;;;;;13.38;9.57;;;;;;;4.81;66.15;95999.25;4899779;29;20095;-81
2021/10/26 01:45:20;;;;;;;16.65;10.35;;;;;;;4.75;66.74;95987.06;4899409;29;20048;-81
2021/10/26 01:47:45;;;;;;;20.25;9.40;;;;;;;4.78;66.24;95984.13;4881415;29;20032;-81
2021/10/26 01:50:13;;;;;;;11.90;9.43;;;;;;;4.88;66.17;95981.38;4898711;29;20040;-81
2021/10/26 01:52:38;;;;;;;18.60;10.68;;;;;;;4.92;65.71;95974.09;4899010;29;20088;-81
2021/10/26 01:55:04;;;;;;;18.63;10.20;;;;;;;5.02;65.82;95974.69;4882475;29;20489;-82
2021/10/26 01:57:30;;;;;;;23.00;11.50;;;;;;;4.98;65.61;95966.50;4866649;29;20033;-82
2021/10/26 01:59:56;;;;;;;26.92;10.90;;;;;;;4.93;66.66;95980.88;4881904;29;20161;-81
2021/10/26 02:02:23;;;;;;;14.20;10.77;;;;;;;5.01;65.80;95975.66;4881326;29;20029;-81
2021/10/26 02:04:55;;;;;;;21.67;10.38;;;;;;;5.10;64.56;95974.66;4867245;29;20512;-81
2021/10/26 02:07:20;;;;;;;17.02;9.77;;;;;;;5.18;62.82;95977.19;4866991;29;20035;-81
2021/10/26 02:09:46;;;;;;;15.38;9.13;;;;;;;5.24;62.40;95973.94;4882445;29;20425;-81
2021/10/26 02:12:11;;;;;;;17.98;10.98;;;;;;;5.26;62.91;95971.19;4882533;29;20029;-81
2021/10/26 02:14:37;;;;;;;19.80;11.98;;;;;;;5.28;62.46;95977.78;4881859;29;20043;-81
2021/10/26 02:17:03;;;;;;;16.48;10.02;;;;;;;5.25;62.32;95965.22;4866429;29;20100;-82
2021/10/26 02:19:29;;;;;;;21.40;10.95;;;;;;;5.15;62.60;95972.38;4867382;29;20060;-81
2021/10/26 02:21:54;;;;;;;22.40;11.45;;;;;;;5.15;62.38;95962.06;4883892;29;20130;-81
2021/10/26 02:24:20;;;;;;;13.65;10.23;;;;;;;5.10;62.76;95964.34;4882069;29;20040;-81
2021/10/26 02:26:46;;;;;;;19.67;10.90;;;;;;;5.02;63.56;95969.53;4881479;29;20048;-81
2021/10/26 02:29:37;;;;;;;13.73;10.30;;;;;;;4.95;62.87;95961.69;4881480;29;20155;-81
2021/10/26 02:32:04;;;;;;;16.83;11.10;;;;;;;4.94;63.36;95961.84;4896704;29;20038;-81
2021/10/26 02:34:29;;;;;;;20.90;10.38;;;;;;;4.95;62.50;95961.69;4884020;29;20052;-81
2021/10/26 02:36:55;;;;;;;21.35;9.48;;;;;;;4.94;62.82;95962.66;4882294;29;20060;-81
2021/10/26 02:39:21;;;;;;;14.10;9.73;;;;;;;4.98;62.52;95961.34;4866406;29;20033;-81
2021/10/26 02:41:46;;;;;;;17.27;10.52;;;;;;;4.98;62.80;95965.69;4881882;29;20072;-81
2021/10/26 02:44:12;;;;;;;18.73;9.82;;;;;;;4.89;63.38;95962.38;4866033;29;20040;-81
2021/10/26 02:46:37;;;;;;;19.50;10.57;;;;;;;4.72;64.07;95971.94;4898031;29;20127;-81
2021/10/26 02:49:03;;;;;;;18.98;9.90;;;;;;;4.74;63.38;95966.59;4866396;29;20087;-81
2021/10/26 02:51:28;;;;;;;17.52;10.88;;;;;;;4.66;64.43;95959.69;4881007;29;20044;-80
2021/10/26 02:53:54;;;;;;;16.00;10.18;;;;;;;4.68;64.76;95959.53;4880914;29;20036;-81
2021/10/26 02:56:20;;;;;;;19.73;10.65;;;;;;;4.72;64.43;95958.25;4881077;29;20096;-80
2021/10/26 02:58:45;;;;;;;23.88;13.27;;;;;;;4.70;63.88;95955.81;4864824;29;20043;-81
2021/10/26 03:01:11;;;;;;;17.75;10.88;;;;;;;4.73;63.77;95958.06;4866044;29;20033;-81
2021/10/26 03:03:37;;;;;;;25.83;12.23;;;;;;;4.72;64.07;95951.31;4881138;29;20033;-80
2021/10/26 03:06:03;;;;;;;20.60;11.70;;;;;;;4.75;63.63;95950.19;4865211;29;20060;-80
2021/10/26 03:08:36;;;;;;;14.98;11.25;;;;;;;4.73;63.23;95952.94;4866496;29;20064;-80
2021/10/26 03:11:02;;;;;;;20.63;11.65;;;;;;;4.73;64.03;95952.13;4885574;29;20057;-81
2021/10/26 03:13:27;;;;;;;24.05;12.05;;;;;;;4.75;64.26;95952.75;4872377;29;20037;-80
2021/10/26 03:15:53;;;;;;;20.65;12.27;;;;;;;4.71;63.98;95948.88;4887557;29;20065;-81
2021/10/26 03:18:18;;;;;;;16.35;10.77;;;;;;;4.75;63.19;95956.13;4883445;29;20036;-82
2021/10/26 03:20:44;;;;;;;21.92;11.35;;;;;;;4.81;63.71;95950.31;4896550;29;20036;-82
2021/10/26 03:23:10;;;;;;;21.55;11.80;;;;;;;4.83;63.04;95948.34;4898779;29;20044;-81
2021/10/26 03:25:35;;;;;;;20.88;12.45;;;;;;;4.84;63.04;95944.00;4881640;29;20047;-80
2021/10/26 03:28:27;;;;;;;22.58;12.25;;;;;;;4.77;62.66;95953.38;4882981;29;20037;-82
2021/10/26 03:30:53;;;;;;;23.20;12.40;;;;;;;4.72;63.29;95946.16;4895980;29;20037;-82
2021/10/26 03:33:19;;;;;;;22.70;11.48;;;;;;;4.72;62.27;95945.38;4897752;29;20412;-81
2021/10/26 03:35:44;;;;;;;20.40;11.48;;;;;;;4.67;63.08;95945.03;4898985;29;20040;-81
2021/10/26 03:38:10;;;;;;;20.27;11.38;;;;;;;4.67;62.54;95943.28;4935943;23;20044;-80
2021/10/26 03:40:36;;;;;;;22.13;11.75;;;;;;;4.64;63.36;95937.66;4907479;29;20036;-81
2021/10/26 03:43:01;;;;;;;19.08;12.32;;;;;;;4.59;63.73;95934.78;4903019;29;20028;-81
2021/10/26 03:45:27;;;;;;;19.63;12.30;;;;;;;4.64;63.97;95942.81;4880979;29;20150;-81
2021/10/26 03:47:55;;;;;;;16.48;12.20;;;;;;;4.64;63.65;95938.44;4881495;29;20032;-80
2021/10/26 03:50:24;;;;;;;22.35;12.52;;;;;;;4.62;63.80;95940.41;4882115;29;20882;-81
2021/10/26 03:53:09;;;;;;;22.85;11.70;;;;;;;4.61;64.17;95935.41;4897783;29;20508;-81
2021/10/26 03:55:34;;;;;;;20.15;13.10;;;;;;;4.56;64.20;95943.66;4898466;29;20127;-81
2021/10/26 03:58:00;;;;;;;26.30;14.73;;;;;;;4.59;63.78;95943.31;4913013;29;20040;-81
2021/10/26 04:00:26;;;;;;;33.35;16.92;;;;;;;4.63;62.74;95941.19;4897153;29;20100;-82
2021/10/26 04:02:52;;;;;;;23.40;15.20;;;;;;;4.54;62.94;95943.00;4897047;29;20131;-81
2021/10/26 04:05:24;;;;;;;34.47;19.75;;;;;;;4.48;63.35;95941.88;4897333;29;20032;-80
2021/10/26 04:07:59;;;;;;;47.67;24.63;;;;;;;4.42;63.02;95944.34;4897338;29;20033;-82
2021/10/26 04:11:03;;;;;;;53.25;25.95;;;;;;;4.39;63.62;95949.78;4897098;29;20048;-82
2021/10/26 04:13:16;;;;;;;53.47;25.45;;;;;;;4.35;63.31;95939.03;4899246;29;20080;-82
2021/10/26 04:15:42;;;;;;;55.47;31.35;;;;;;;4.34;62.92;95936.63;4898354;29;20510;-83
2021/10/26 04:18:33;;;;;;;78.05;40.75;;;;;;;4.28;62.76;95940.66;4902580;29;20032;-84
2021/10/26 04:20:59;;;;;;;77.95;43.90;;;;;;;4.14;63.35;95937.00;4884884;29;20051;-83
2021/10/26 04:23:25;;;;;;;103.28;47.70;;;;;;;4.13;63.86;95939.75;4885337;29;20037;-83
2021/10/26 04:25:50;;;;;;;109.78;48.17;;;;;;;4.07;63.40;95930.91;4903329;29;20596;-82
2021/10/26 04:28:16;;;;;;;119.25;53.25;;;;;;;4.06;63.73;95937.00;4903731;29;20485;-83
2021/10/26 04:30:42;;;;;;;124.45;52.75;;;;;;;3.97;63.90;95932.84;4870313;29;20040;-82
2021/10/26 04:33:08;;;;;;;107.60;51.17;;;;;;;3.97;64.30;95929.47;4887941;29;20047;-83
2021/10/26 04:35:34;;;;;;;123.28;68.95;;;;;;;3.97;63.81;95934.63;4888834;29;20029;-82
2021/10/26 04:38:00;;;;;;;146.00;87.18;;;;;;;3.95;63.64;95942.50;4892667;29;20044;-82
2021/10/26 04:40:25;;;;;;;110.70;67.65;;;;;;;3.92;64.18;95937.69;4892111;29;20072;-81
2021/10/26 04:42:51;;;;;;;128.70;70.65;;;;;;;3.84;64.17;95940.25;4873213;29;20531;-84
2021/10/26 04:45:16;;;;;;;117.25;65.10;;;;;;;3.95;63.69;95944.28;4900799;29;20041;-82
2021/10/26 04:47:45;;;;;;;89.15;55.47;;;;;;;3.89;63.56;95938.78;4886359;29;20117;-83
2021/10/26 04:50:12;;;;;;;86.22;49.40;;;;;;;3.88;64.00;95942.31;4886337;29;20417;-83
2021/10/26 04:52:38;;;;;;;95.35;48.53;;;;;;;3.90;64.43;95944.72;4887635;29;20547;-83
2021/10/26 04:55:04;;;;;;;74.07;47.35;;;;;;;3.95;64.18;95942.50;4892491;29;20036;-84
2021/10/26 04:57:29;;;;;;;75.53;41.08;;;;;;;3.90;63.77;95947.31;4894829;29;20507;-82
2021/10/26 04:59:58;;;;;;;66.55;35.80;;;;;;;3.95;64.83;95947.66;4885113;29;20040;-83
2021/10/26 05:02:23;;;;;;;60.80;36.95;;;;;;;3.94;64.10;95946.03;4900397;29;20123;-83
2021/10/26 05:04:48;;;;;;;65.25;39.72;;;;;;;3.92;64.42;95948.78;4900402;29;20043;-81
2021/10/26 05:07:21;;;;;;;79.75;44.63;;;;;;;3.98;64.25;95943.94;4900210;29;20527;-83
2021/10/26 05:09:49;;;;;;;77.50;47.55;;;;;;;4.03;63.58;95947.63;4901450;29;20095;-80
2021/10/26 05:12:15;;;;;;;80.75;44.90;;;;;;;3.97;63.76;95945.72;4899930;29;20128;-83
2021/10/26 05:14:40;;;;;;;75.32;43.17;;;;;;;4.12;64.05;95943.28;4898966;29;20550;-83
2021/10/26 05:19:33;;;;;;;75.95;34.03;;;;;;;4.28;62.88;95942.44;4935763;23;20100;-83
2021/10/26 05:21:59;;;;;;;61.33;28.00;;;;;;;4.46;62.60;95951.56;4921289;29;20047;-82
2021/10/26 05:24:26;;;;;;;60.53;31.08;;;;;;;4.57;62.69;95962.50;4908350;29;20036;-82
2021/10/26 05:26:52;;;;;;;51.85;28.83;;;;;;;4.75;62.88;95956.13;4932021;29;20033;-86
2021/10/26 05:29:17;;;;;;;41.90;23.58;;;;;;;5.00;62.19;95945.69;4898696;29;20031;-84
2021/10/26 05:31:43;;;;;;;39.97;19.02;;;;;;;5.41;61.14;95954.00;4927940;29;20043;-85
2021/10/26 05:34:09;;;;;;;27.67;19.05;;;;;;;5.72;60.91;95952.19;4905366;29;20036;-87
2021/10/26 05:36:38;;;;;;;51.50;24.58;;;;;;;5.96;59.81;95953.75;4904828;29;20059;-85
2021/10/26 05:39:05;;;;;;;41.08;23.25;;;;;;;6.22;60.09;95955.97;4903842;29;20036;-84
2021/10/26 05:41:31;;;;;;;31.13;18.92;;;;;;;6.48;59.75;95955.50;4889366;29;20059;-83
2021/10/26 05:43:56;;;;;;;37.47;20.73;;;;;;;6.73;59.42;95952.69;4903499;29;20027;-84
2021/10/26 05:46:24;;;;;;;60.25;29.23;;;;;;;6.94;57.67;95950.16;4886767;29;20043;-85
2021/10/26 05:48:50;;;;;;;71.90;29.25;;;;;;;7.14;57.29;95958.13;4918495;29;20043;-82
2021/10/26 05:51:16;;;;;;;75.85;36.42;;;;;;;7.27;56.85;95960.88;4900783;29;20040;-84
2021/10/26 05:53:41;;;;;;;80.28;40.17;;;;;;;7.48;55.71;95962.66;4886060;29;20039;-81
2021/10/26 05:56:07;;;;;;;116.90;47.00;;;;;;;7.73;55.67;95968.28;4911167;29;20037;-82
2021/10/26 05:58:32;;;;;;;83.03;40.67;;;;;;;7.98;54.94;95966.13;4896837;29;20156;-82
2021/10/26 06:00:57;;;;;;;38.35;21.58;;;;;;;8.16;54.56;95966.47;4870171;29;20051;-82
2021/10/26 06:03:23;;;;;;;42.40;23.88;;;;;;;8.38;53.84;95970.63;4895980;29;20072;-81
2021/10/26 06:05:49;;;;;;;77.38;46.83;;;;;;;8.68;53.05;95965.25;4897125;29;20032;-82
2021/10/26 06:08:15;;;;;;;61.20;38.33;;;;;;;9.12;52.61;95966.66;4881360;29;20148;-82
2021/10/26 06:10:44;;;;;;;76.10;47.63;;;;;;;9.53;51.01;95964.75;4915165;29;20359;-84
2021/10/26 06:13:12;;;;;;;50.58;32.13;;;;;;;9.77;50.11;95973.00;4915631;29;20476;-81
2021/10/26 06:15:39;;;;;;;45.45;25.25;;;;;;;9.99;49.64;95977.00;4895659;29;20039;-82
2021/10/26 06:18:04;;;;;;;45.42;24.65;;;;;;;10.50;48.64;95971.22;4883578;29;20056;-81
2021/10/26 06:20:33;;;;;;;41.65;21.17;;;;;;;10.78;47.16;95974.38;4884579;29;20036;-83
2021/10/26 06:22:59;;;;;;;37.08;17.27;;;;;;;10.66;46.39;95976.00;4899297;29;20084;-85
2021/10/26 06:25:25;;;;;;;28.42;15.77;;;;;;;10.48;46.84;95968.81;4883169;29;20403;-84
2021/10/26 06:27:51;;;;;;;21.25;14.60;;;;;;;10.22;47.22;95974.84;4898435;29;20523;-85
2021/10/26 06:30:51;;;;;;;32.05;14.57;;;;;;;10.01;47.72;95977.59;4915101;29;20043;-84
2021/10/26 06:33:16;;;;;;;23.75;13.38;;;;;;;9.99;48.35;95978.81;4913813;29;20579;-84
2021/10/26 06:35:41;;;;;;;23.63;13.00;;;;;;;10.15;47.47;95978.41;4918138;29;20066;-84
2021/10/26 06:38:07;;;;;;;18.33;13.15;;;;;;;10.27;47.36;95976.06;4882268;29;20044;-85
2021/10/26 06:40:33;;;;;;;24.92;12.90;;;;;;;10.46;47.50;95970.03;4865437;29;20040;-82
2021/10/26 06:42:59;;;;;;;29.40;14.40;;;;;;;10.68;46.98;95973.97;4914151;29;20032;-82
2021/10/26 06:45:25;;;;;;;39.25;18.05;;;;;;;10.80;46.92;95967.16;4898265;29;20036;-82
2021/10/26 06:47:51;;;;;;;35.40;18.75;;;;;;;11.00;47.39;95976.69;4883310;29;20035;-84
2021/10/26 06:50:16;;;;;;;45.13;19.65;;;;;;;11.16;45.24;95972.84;4898604;29;20409;-82
2021/10/26 06:52:42;;;;;;;32.78;18.80;;;;;;;11.41;45.15;95971.94;4915576;29;20411;-84
2021/10/26 06:55:08;;;;;;;36.88;19.95;;;;;;;11.59;45.05;95970.44;4913629;29;20095;-80
2021/10/26 06:57:34;;;;;;;42.83;23.27;;;;;;;11.63;44.87;95971.59;4897826;29;20047;-80
2021/10/26 07:00:00;;;;;;;51.72;21.70;;;;;;;11.71;44.65;95966.97;4915545;29;20048;-81
2021/10/26 07:02:29;;;;;;;40.42;23.42;;;;;;;11.83;44.43;95977.50;4882624;29;20792;-82
2021/10/26 07:04:59;;;;;;;45.45;21.40;;;;;;;12.05;44.30;95975.38;4898127;29;20032;-82
2021/10/26 07:07:24;;;;;;;45.92;21.88;;;;;;;12.10;43.88;95969.53;4914295;29;20127;-81
2021/10/26 07:09:50;;;;;;;36.03;21.20;;;;;;;12.03;43.31;95972.94;4883321;29;20039;-82
2021/10/26 07:12:16;;;;;;;50.45;21.17;;;;;;;12.09;43.41;95973.13;4880662;29;20119;-80
2021/10/26 07:14:43;;;;;;;35.58;20.63;;;;;;;12.21;43.29;95966.22;4915758;29;20064;-81
2021/10/26 07:17:09;;;;;;;49.33;22.05;;;;;;;12.50;43.66;95962.13;4883989;29;20484;-83
2021/10/26 07:19:34;;;;;;;46.38;22.48;;;;;;;12.58;42.26;95962.66;4899501;29;20032;-83
2021/10/26 07:22:00;;;;;;;47.80;22.10;;;;;;;12.71;42.87;95971.41;4899565;29;20624;-84
2021/10/26 07:24:26;;;;;;;47.22;21.10;;;;;;;12.60;42.07;95960.63;4915255;29;20040;-83
2021/10/26 07:26:52;;;;;;;37.53;20.25;;;;;;;12.33;42.72;95961.88;4916352;29;20057;-85
2021/10/26 07:29:18;;;;;;;44.30;20.08;;;;;;;12.25;43.93;95959.56;4905153;29;20123;-83
2021/10/26 07:31:43;;;;;;;40.60;21.73;;;;;;;12.43;44.32;95957.00;4926275;29;20028;-83
2021/10/26 07:34:12;;;;;;;35.92;18.92;;;;;;;12.44;42.76;95952.56;4908796;29;20043;-83
2021/10/26 07:36:43;;;;;;;37.47;19.30;;;;;;;12.57;43.49;95961.09;4904537;29;20032;-81
2021/10/26 07:39:43;;;;;;;22.58;14.23;;;;;;;12.46;43.01;95958.38;4919116;29;20047;-83
2021/10/26 07:42:00;;;;;;;26.27;12.85;;;;;;;11.97;43.90;95952.97;4902564;29;20040;-81
2021/10/26 07:44:29;;;;;;;22.63;13.68;;;;;;;11.99;44.30;95937.91;4918138;29;20031;-83
2021/10/26 07:46:59;;;;;;;24.48;13.00;;;;;;;12.11;44.47;95939.81;4902766;29;20043;-81
2021/10/26 07:49:24;;;;;;;17.10;10.90;;;;;;;12.09;44.24;95949.69;4901201;29;20453;-82
2021/10/26 07:51:51;;;;;;;12.65;10.23;;;;;;;11.80;43.95;95951.88;4916333;29;20040;-82
2021/10/26 07:54:18;;;;;;;13.15;9.98;;;;;;;11.74;44.46;95944.88;4886367;29;20419;-83
2021/10/26 07:56:44;;;;;;;15.57;10.63;;;;;;;11.65;44.71;95936.50;4902173;29;20039;-80
2021/10/26 07:59:10;;;;;;;16.63;10.38;;;;;;;11.66;45.05;95938.09;4887726;29;20045;-82
2021/10/26 08:01:36;;;;;;;14.65;10.35;;;;;;;11.80;44.78;95933.63;4904262;29;20028;-82
2021/10/26 08:04:01;;;;;;;18.35;11.27;;;;;;;11.80;44.48;95928.44;4903405;29;20048;-81
2021/10/26 08:06:27;;;;;;;19.02;11.48;;;;;;;12.03;44.00;95925.22;4890890;29;20042;-81
2021/10/26 08:08:53;;;;;;;24.27;10.07;;;;;;;12.06;43.91;95922.22;4903756;29;20025;-79
2021/10/26 08:11:19;;;;;;;15.57;10.00;;;;;;;12.09;43.55;95923.59;4904531;29;20052;-81
2021/10/26 08:13:46;;;;;;;14.30;10.68;;;;;;;12.19;43.55;95923.91;4921151;29;20043;-82
2021/10/26 08:16:12;;;;;;;17.83;10.52;;;;;;;12.26;43.78;95927.25;4901332;29;21170;-85
2021/10/26 08:18:38;;;;;;;17.83;11.18;;;;;;;12.22;43.77;95913.06;4885075;29;20039;-78
2021/10/26 08:21:03;;;;;;;13.95;10.38;;;;;;;12.01;44.64;95922.03;4902391;29;20420;-79
2021/10/26 08:23:29;;;;;;;13.68;10.18;;;;;;;11.94;44.33;95921.31;4919632;29;20032;-78
2021/10/26 08:25:58;;;;;;;16.02;11.38;;;;;;;12.11;44.13;95911.16;4901553;29;20047;-80
2021/10/26 08:28:24;;;;;;;18.90;10.77;;;;;;;12.29;44.25;95913.78;4873729;29;20044;-80
2021/10/26 08:30:57;;;;;;;19.08;10.90;;;;;;;12.29;44.32;95901.53;4905238;29;20492;-80
2021/10/26 08:36:06;;;;;;;13.63;9.35;;;;;;;12.30;43.43;95912.78;4902906;29;20095;-79
2021/10/26 08:38:38;;;;;;;13.85;10.18;;;;;;;12.13;44.03;95914.34;4884038;29;20028;-80
2021/10/26 08:41:06;;;;;;;19.75;10.13;;;;;;;11.96;44.68;95912.25;4900562;29;20040;-79
2021/10/26 08:43:32;;;;;;;14.13;10.35;;;;;;;12.00;44.24;95920.44;4886096;29;20032;-80
2021/10/26 08:46:03;;;;;;;14.88;10.70;;;;;;;11.95;44.62;95908.06;4886879;29;20032;-81
2021/10/26 08:48:29;;;;;;;18.63;10.23;;;;;;;12.06;44.42;95914.41;4903590;29;20039;-80
2021/10/26 08:51:00;;;;;;;16.85;10.07;;;;;;;11.94;44.46;95916.91;4906080;29;20043;-79
2021/10/26 08:53:28;;;;;;;19.98;11.00;;;;;;;12.00;44.58;95916.03;4915487;29;20032;-79
2021/10/26 08:55:58;;;;;;;17.17;10.50;;;;;;;12.00;44.49;95915.25;4915722;29;20039;-81
2021/10/26 08:58:28;;;;;;;13.80;10.35;;;;;;;11.95;45.66;95902.06;4886927;29;20069;-81
2021/10/26 09:00:54;;;;;;;21.10;11.68;;;;;;;11.85;45.47;95914.75;4901206;29;20066;-81
2021/10/26 09:03:22;;;;;;;23.38;11.38;;;;;;;11.79;45.60;95908.59;4900984;29;20048;-81
2021/10/26 09:05:49;;;;;;;19.13;11.27;;;;;;;11.78;45.31;95906.16;4884003;29;20051;-82
2021/10/26 09:08:15;;;;;;;13.25;10.82;;;;;;;11.66;45.75;95908.66;4885682;29;20059;-83
2021/10/26 09:10:41;;;;;;;22.63;10.43;;;;;;;11.86;45.80;95906.72;4886718;29;20036;-81
2021/10/26 09:18:39;;;;;;;17.23;10.25;;;;;;;11.39;46.77;95895.81;4889267;29;20567;-82
2021/10/26 09:21:05;;;;;;;15.63;11.02;;;;;;;11.25;47.26;95894.31;4894140;29;20036;-80
2021/10/26 09:23:30;;;;;;;19.70;10.65;;;;;;;11.01;47.53;95897.63;4902619;29;20468;-81
2021/10/26 09:25:59;;;;;;;14.98;9.75;;;;;;;10.77;48.16;95897.31;4891818;29;20566;-81
2021/10/26 09:28:26;;;;;;;16.48;10.90;;;;;;;10.52;49.01;95883.38;4904342;29;20123;-80
2021/10/26 09:31:04;;;;;;;19.10;10.68;;;;;;;10.56;49.06;95876.75;4901999;29;20706;-79
2021/10/26 09:33:39;;;;;;;14.80;10.35;;;;;;;10.49;49.57;95870.81;4900894;29;20656;-79
2021/10/26 09:36:38;;;;;;;12.52;9.65;;;;;;;10.13;49.77;95872.06;4887136;29;20051;-78
2021/10/26 09:39:03;;;;;;;17.55;10.93;;;;;;;10.11;50.61;95873.28;4918640;29;20523;-79
2021/10/26 09:41:31;;;;;;;17.17;9.80;;;;;;;10.16;49.98;95866.44;4918671;29;20054;-77
2021/10/26 09:44:15;;;;;;;13.07;9.43;;;;;;;10.28;50.14;95860.66;4925723;29;20036;-78
2021/10/26 09:46:59;;;;;;;14.18;10.10;;;;;;;10.26;50.26;95847.88;4913516;29;20044;-79
2021/10/26 09:49:29;;;;;;;18.75;10.55;;;;;;;10.19;50.67;95842.66;4929197;29;20056;-80
2021/10/26 09:52:23;;;;;;;14.82;9.98;;;;;;;10.29;49.75;95841.47;4914953;29;20028;-80
2021/10/26 09:54:59;;;;;;;14.82;10.02;;;;;;;10.34;49.30;95832.03;4931375;29;20104;-81
2021/10/26 09:57:26;;;;;;;18.65;10.50;;;;;;;10.37;49.34;95839.44;4903893;29;20040;-82
2021/10/26 09:59:55;;;;;;;13.98;9.05;;;;;;;10.16;49.38;95824.06;4887631;29;20032;-82
2021/10/26 10:02:24;;;;;;;13.02;8.90;;;;;;;10.06;49.87;95826.28;4886507;29;20032;-83
2021/10/26 10:04:55;;;;;;;12.60;9.88;;;;;;;10.13;50.81;95816.69;4885972;29;20040;-81
2021/10/26 10:07:31;;;;;;;24.25;10.23;;;;;;;10.16;49.98;95811.88;4917956;29;20060;-82
2021/10/26 10:10:34;;;;;;;11.30;8.60;;;;;;;10.19;49.25;95811.47;4902025;29;20083;-82
2021/10/26 10:13:01;;;;;;;10.32;8.82;;;;;;;10.32;49.33;95817.66;4921104;29;20047;-83
2021/10/26 10:15:28;;;;;;;13.68;9.40;;;;;;;10.17;50.05;95810.88;4915687;29;20077;-81
2021/10/26 10:17:55;;;;;;;16.38;9.15;;;;;;;10.35;50.03;95797.25;4885968;29;20036;-81
2021/10/26 10:20:20;;;;;;;13.63;9.10;;;;;;;10.32;49.83;95796.84;4902379;29;20048;-81
2021/10/26 10:22:46;;;;;;;13.70;9.27;;;;;;;10.32;49.25;95797.66;4885057;29;20099;-81
2021/10/26 10:25:12;;;;;;;12.40;8.75;;;;;;;10.41;48.44;95790.41;4889697;29;20048;-81
2021/10/26 10:27:41;;;;;;;16.83;8.68;;;;;;;10.40;49.37;95788.81;4886397;29;20099;-82
2021/10/26 10:30:09;;;;;;;12.40;8.73;;;;;;;10.51;49.00;95780.38;4902369;29;20524;-83
2021/10/26 10:32:35;;;;;;;15.07;9.30;;;;;;;10.61;48.41;95791.13;4901730;29;20433;-83
2021/10/26 10:35:00;;;;;;;12.43;8.95;;;;;;;10.49;49.22;95783.19;4868361;29;20054;-82
2021/10/26 10:37:27;;;;;;;11.10;8.93;;;;;;;10.26;49.65;95776.91;4900813;29;20032;-82
2021/10/26 10:39:57;;;;;;;10.15;7.97;;;;;;;10.31;49.33;95788.25;4901709;29;20076;-82
2021/10/26 10:42:24;;;;;;;24.60;8.27;;;;;;;10.32;49.37;95768.25;4896624;29;20134;-83
2021/10/26 10:44:52;;;;;;;11.00;8.13;;;;;;;10.28;49.37;95770.47;4886474;29;20040;-83
2021/10/26 10:47:39;;;;;;;10.00;7.40;;;;;;;10.31;49.26;95769.28;4901028;29;20047;-80
2021/10/26 10:50:21;;;;;;;10.18;7.78;;;;;;;10.10;49.37;95762.53;4901445;29;20046;-82
2021/10/26 10:53:18;;;;;;;7.45;6.68;;;;;;;10.16;50.07;95756.50;4915958;29;20412;-81
2021/10/26 10:56:10;;;;;;;10.80;7.63;;;;;;;10.11;49.82;95764.91;4914832;29;20060;-80
2021/10/26 10:58:54;;;;;;;11.38;7.97;;;;;;;9.91;50.49;95745.97;4898960;29;20042;-82
2021/10/26 11:01:30;;;;;;;10.35;7.60;;;;;;;9.86;50.41;95748.38;4888895;29;20480;-80
2021/10/26 11:03:56;;;;;;;15.75;7.75;;;;;;;10.01;49.75;95751.53;4884905;29;20412;-81
2021/10/26 11:06:40;;;;;;;12.27;8.40;;;;;;;10.13;49.84;95746.50;4919993;29;20099;-81
2021/10/26 11:09:29;;;;;;;14.95;7.68;;;;;;;10.15;49.15;95734.91;4917979;29;20032;-83
2021/10/26 11:12:30;;;;;;;15.55;7.60;;;;;;;10.31;48.78;95722.47;4917487;29;20040;-81
2021/10/26 11:14:58;;;;;;;18.00;8.65;;;;;;;10.40;49.03;95721.22;4917246;29;20044;-80
2021/10/26 11:17:36;;;;;;;8.43;6.57;;;;;;;10.39;48.63;95715.22;4869476;29;20032;-83
2021/10/26 11:20:03;;;;;;;12.65;6.53;;;;;;;10.54;47.88;95717.53;4900546;29;20099;-79
2021/10/26 11:22:44;;;;;;;10.10;7.88;;;;;;;10.71;47.34;95713.44;4887938;29;20112;-83
2021/10/26 11:25:34;;;;;;;14.35;6.95;;;;;;;10.79;47.83;95715.78;4917741;29;20036;-81
2021/10/26 11:28:24;;;;;;;11.00;6.57;;;;;;;10.75;47.49;95696.41;4905961;29;20032;-83
2021/10/26 11:30:55;;;;;;;9.63;6.78;;;;;;;10.87;47.21;95703.53;4901831;29;20044;-82
2021/10/26 11:33:23;;;;;;;7.53;6.72;;;;;;;10.78;47.22;95698.59;4888499;29;20047;-82
2021/10/26 11:35:55;;;;;;;9.52;6.80;;;;;;;10.87;46.59;95690.50;4921782;29;20047;-82
2021/10/26 11:38:28;;;;;;;21.17;8.38;;;;;;;10.88;46.75;95681.69;4889796;29;20036;-81
2021/10/26 11:41:07;;;;;;;12.70;7.25;;;;;;;10.98;46.58;95676.81;4926394;23;20055;-82
2021/10/26 11:43:56;;;;;;;9.65;6.53;;;;;;;10.88;46.50;95673.88;4909168;29;20052;-82